South Trader — D7SA — position and weather

sailwx.info

Track history (hours):
 
Tides and Currents Weather Stations Pressure Air Temp Water Temp Dewpoint Dewpoint Depression Visibility Wind Speed Wind Dir Waves Ship Positions

South Trader

Last reported at 2017-Dec-12 18:56 UTC. Time now 2017-Dec-17 04:20 UTC.
Position N 33°60' E 130°12'.

Length 292 m; draft 9.8 m.

Type: Cargo ship. MMSI: 440380000.

Date/timePositionNaut miles runAvg speedWind from/ knotsBaromVisibWave heightAir tempDewpointWater temp
2017-Dec-12 18:56N 33°60' E 130°12'613.3
2017-Dec-12 18:30N 34°00' E 130°19'713.5
2017-Dec-12 18:00N 34°01' E 130°27'713.3
2017-Dec-12 17:30N 34°02' E 130°35'713.3
2017-Dec-12 17:00N 34°02' E 130°43'612.2
2017-Dec-12 16:30N 34°02' E 130°50'611.1
2017-Dec-12 16:00N 33°56' E 130°52'3 6.8
2017-Dec-12 15:30N 33°57' E 130°56'5 9.4
2017-Dec-12 15:00N 33°58' E 131°02'612.9
2017-Dec-12 14:30N 33°54' E 131°08'713.2
2017-Dec-12 14:00N 33°51' E 131°15'713.6
2017-Dec-12 13:30N 33°50' E 131°23'713.3
2017-Dec-12 13:00N 33°49' E 131°30'612.9
2017-Dec-12 12:30N 33°47' E 131°38'3113.0
2017-Dec-12 10:07N 33°44' E 132°15'1913.5
2017-Dec-12 08:44N 33°53' E 132°35'413.1
2017-Dec-12 08:24N 33°56' E 132°39'512.4
2017-Dec-12 07:58N 33°59' E 132°44'  
2017-Dec-10 01:10N 34°01' E 132°46'211.6
2017-Dec-10 01:00N 33°59' E 132°45'510.8
2017-Dec-10 00:30N 33°56' E 132°40'4211.6
2017-Dec-09 20:54N 33°44' E 131°52'513.8
2017-Dec-09 20:31N 33°45' E 131°45'714.2
2017-Dec-09 20:01N 33°46' E 131°37'713.9
2017-Dec-09 19:30N 33°48' E 131°29'713.9
2017-Dec-09 19:00N 33°50' E 131°21'713.9
2017-Dec-09 18:30N 33°51' E 131°13'713.5
2017-Dec-09 18:01N 33°55' E 131°06'712.9
2017-Dec-09 17:30N 33°58' E 130°59'4 9.0
2017-Dec-09 17:01N 33°55' E 130°56'510.3
2017-Dec-09 16:30N 33°58' E 130°51'611.2
2017-Dec-09 16:01N 34°02' E 130°46'714.7
2017-Dec-09 15:30N 34°02' E 130°37'714.9
2017-Dec-09 15:00N 34°02' E 130°28'714.7
2017-Dec-09 14:30N 34°02' E 130°19'714.7
2017-Dec-09 14:00N 34°02' E 130°11'  
Track history (hours):
 
Tides and Currents Weather Stations Pressure Air Temp Water Temp Dewpoint Dewpoint Depression Visibility Wind Speed Wind Dir Waves Ship Positions

South Trader

Last reported at 2017-Dec-12 18:56 UTC. Time now 2017-Dec-17 04:20 UTC.
Position N 33°60' E 130°12'.

Length 292 m; draft 9.8 m.

Type: Cargo ship. MMSI: 440380000.

Date/timePositionNaut miles runAvg speedWind from/ knotsBaromVisibWave heightAir tempDewpointWater temp
2017-Dec-12 18:56N 33°60' E 130°12'613.3
2017-Dec-12 18:30N 34°00' E 130°19'713.5
2017-Dec-12 18:00N 34°01' E 130°27'713.3
2017-Dec-12 17:30N 34°02' E 130°35'713.3
2017-Dec-12 17:00N 34°02' E 130°43'612.2
2017-Dec-12 16:30N 34°02' E 130°50'611.1
2017-Dec-12 16:00N 33°56' E 130°52'3 6.8
2017-Dec-12 15:30N 33°57' E 130°56'5 9.4
2017-Dec-12 15:00N 33°58' E 131°02'612.9
2017-Dec-12 14:30N 33°54' E 131°08'713.2
2017-Dec-12 14:00N 33°51' E 131°15'713.6
2017-Dec-12 13:30N 33°50' E 131°23'713.3
2017-Dec-12 13:00N 33°49' E 131°30'612.9
2017-Dec-12 12:30N 33°47' E 131°38'3113.0
2017-Dec-12 10:07N 33°44' E 132°15'1913.5
2017-Dec-12 08:44N 33°53' E 132°35'413.1
2017-Dec-12 08:24N 33°56' E 132°39'512.4
2017-Dec-12 07:58N 33°59' E 132°44'  
2017-Dec-10 01:10N 34°01' E 132°46'211.6
2017-Dec-10 01:00N 33°59' E 132°45'510.8
2017-Dec-10 00:30N 33°56' E 132°40'4211.6
2017-Dec-09 20:54N 33°44' E 131°52'513.8
2017-Dec-09 20:31N 33°45' E 131°45'714.2
2017-Dec-09 20:01N 33°46' E 131°37'713.9
2017-Dec-09 19:30N 33°48' E 131°29'713.9
2017-Dec-09 19:00N 33°50' E 131°21'713.9
2017-Dec-09 18:30N 33°51' E 131°13'713.5
2017-Dec-09 18:01N 33°55' E 131°06'712.9
2017-Dec-09 17:30N 33°58' E 130°59'4 9.0
2017-Dec-09 17:01N 33°55' E 130°56'510.3
2017-Dec-09 16:30N 33°58' E 130°51'611.2
2017-Dec-09 16:01N 34°02' E 130°46'714.7
2017-Dec-09 15:30N 34°02' E 130°37'714.9
2017-Dec-09 15:00N 34°02' E 130°28'714.7
2017-Dec-09 14:30N 34°02' E 130°19'714.7
2017-Dec-09 14:00N 34°02' E 130°11'  

Dump ship's entire track history